ADDS METAR Data INFO
IDs: Format: Raw Decoded Include TAF

Data at: 1016 UTC 14 Dec 2017

KMYF 140953Z AUTO 00000KT 10SM CLR 11/01 A2996 RMK AO2 SLP141 T01060011
KMYF 140853Z AUTO 00000KT 10SM CLR 12/03 A2997 RMK AO2 SLP145 T01220033 58005
KMYF 140753Z AUTO 10003KT 10SM CLR 12/04 A2998 RMK AO2 SLP148 T01220039 402830089
KMYF 140653Z AUTO 02003KT 10SM CLR 12/03 A2999 RMK AO2 SLP152 T01220033
KMYF 140553Z AUTO 00000KT 10SM CLR 14/05 A2999 RMK AO2 SLP150 T01390050 10261 20139 51005
KMYF 140453Z 00000KT 10SM CLR 16/M03 A2998 RMK AO2 SLP147 T01611028
KMYF 140353Z 11003KT 10SM CLR 17/M07 A2999 RMK AO2 SLP151 T01671072
KMYF 140253Z 00000KT 10SM CLR 18/M09 A2997 RMK AO2 SLP146 T01781089 53009
KMYF 140153Z 00000KT 10SM CLR 18/M07 A2996 RMK AO2 SLP141 T01831072
KMYF 140053Z 27003KT 10SM CLR 23/M08 A2995 RMK AO2 SLP137 T02281078
KMYF 132353Z 24005KT 10SM CLR 26/M11 A2994 RMK AO2 SLP136 T02611111 10283 20250 56003
KMYF 132253Z 24005KT 10SM CLR 27/M17 A2995 RMK AO2 SLP137 T02721172
KMYF 132153Z 26008KT 10SM CLR 28/M19 A2995 RMK AO2 SLP137 T02781189
KMYF 132053Z 26008KT 10SM CLR 28/M19 A2996 RMK AO2 SLP139 T02781189 58024
KMYF 131953Z 26004KT 10SM CLR 28/M16 A2998 RMK AO2 SLP146 T02781156
KMYF 131853Z 20003KT 10SM CLR 27/M17 A3001 RMK AO2 SLP159 T02671172
KMYF 131753Z 15005KT 10SM CLR 25/M16 A3003 RMK AO2 SLP164 T02501161 10250 20089 50002
KMYF 131653Z 06003KT 10SM CLR 23/M14 A3003 RMK AO2 SLP165 T02281144
KMYF 131553Z 13003KT 10SM CLR 17/M12 A3002 RMK AO2 SLP164 T01671117
KMYF 131453Z 00000KT 10SM CLR 12/M12 A3002 RMK AO2 SLP163 T01171122 53010
KMYF 131353Z 00000KT 10SM CLR 13/M12 A3000 RMK AO2 SLP157 T01281122
KMYF 131253Z AUTO 00000KT 10SM CLR 12/M13 A2999 RMK AO2 SLP153 T01221128
KMYF 131153Z AUTO 00000KT 10SM CLR 12/M13 A2999 RMK AO2 SLP152 T01221133 10167 20111 58006
KMYF 131053Z AUTO 00000KT 10SM CLR 11/M14 A3001 RMK AO2 SLP157 T01111139
KMYF 130953Z AUTO 00000KT 10SM CLR 16/M14 A3002 RMK AO2 SLP160 T01561139
KMYF 130853Z AUTO 00000KT 10SM CLR 16/M13 A3001 RMK AO2 SLP158 T01561128 58008
KMYF 130753Z AUTO 00000KT 10SM CLR 14/M13 A3002 RMK AO2 SLP161 T01391128 402890050
KMYF 130653Z AUTO 00000KT 10SM CLR 15/M12 A3004 RMK AO2 SLP167 T01501122
KMYF 130553Z AUTO 04003KT 10SM CLR 16/M11 A3004 RMK AO2 SLP167 T01611106 10256 20161 56004
KMYF 130453Z 03003KT 10SM CLR 19/M10 A3004 RMK AO2 SLP168 T01891100
KMYF 130353Z 00000KT 10SM CLR 17/M08 A3004 RMK AO2 SLP171 T01671083
KMYF 130253Z 28004KT 10SM CLR 19/M07 A3005 RMK AO2 SLP173 T01941072 53004
KMYF 130153Z 01005KT 10SM CLR 22/M06 A3004 RMK AO2 SLP171 T02171061
KMYF 130053Z 34004KT 10SM CLR 23/M10 A3004 RMK AO2 SLP168 T02331100
KMYF 122353Z 33007KT 10SM CLR 26/M09 A3004 RMK AO2 SLP168 T02561089 10289 20256 56011
KMYF 122253Z AUTO 33007KT 10SM CLR 27/M13 A3004 RMK AO2 SLP168 T02721128